sensor_id;sensor_type;location;lat;lon;timestamp;temperature;humidity
20706;DHT22;10514;49.468;11.044;2024-02-14T00:01:22;3.10;95.50
20706;DHT22;10514;49.468;11.044;2024-02-14T00:03:49;3.00;95.60
20706;DHT22;10514;49.468;11.044;2024-02-14T00:06:14;3.00;95.80
20706;DHT22;10514;49.468;11.044;2024-02-14T00:08:40;3.00;96.10
20706;DHT22;10514;49.468;11.044;2024-02-14T00:11:06;2.90;96.20
20706;DHT22;10514;49.468;11.044;2024-02-14T00:13:31;2.90;96.40
20706;DHT22;10514;49.468;11.044;2024-02-14T00:16:00;2.80;96.60
20706;DHT22;10514;49.468;11.044;2024-02-14T00:18:25;2.90;96.60
20706;DHT22;10514;49.468;11.044;2024-02-14T00:20:51;2.90;96.60
20706;DHT22;10514;49.468;11.044;2024-02-14T00:23:16;2.90;96.60
20706;DHT22;10514;49.468;11.044;2024-02-14T00:25:42;2.90;96.60
20706;DHT22;10514;49.468;11.044;2024-02-14T00:28:07;2.90;96.70
20706;DHT22;10514;49.468;11.044;2024-02-14T00:30:33;2.80;96.70
20706;DHT22;10514;49.468;11.044;2024-02-14T00:32:59;2.80;96.80
20706;DHT22;10514;49.468;11.044;2024-02-14T00:35:25;2.80;96.70
20706;DHT22;10514;49.468;11.044;2024-02-14T00:37:50;2.80;96.80
20706;DHT22;10514;49.468;11.044;2024-02-14T00:40:17;2.70;96.80
20706;DHT22;10514;49.468;11.044;2024-02-14T00:42:43;2.70;97.00
20706;DHT22;10514;49.468;11.044;2024-02-14T00:45:09;2.70;97.00
20706;DHT22;10514;49.468;11.044;2024-02-14T00:47:35;2.70;97.00
20706;DHT22;10514;49.468;11.044;2024-02-14T00:50:04;2.80;97.20
20706;DHT22;10514;49.468;11.044;2024-02-14T00:52:29;2.70;97.40
20706;DHT22;10514;49.468;11.044;2024-02-14T00:54:55;2.70;97.40
20706;DHT22;10514;49.468;11.044;2024-02-14T00:57:21;2.70;97.40
20706;DHT22;10514;49.468;11.044;2024-02-14T00:59:52;2.70;97.50
20706;DHT22;10514;49.468;11.044;2024-02-14T01:02:18;2.70;97.80
20706;DHT22;10514;49.468;11.044;2024-02-14T01:04:43;2.70;97.60
20706;DHT22;10514;49.468;11.044;2024-02-14T01:07:09;2.70;97.50
20706;DHT22;10514;49.468;11.044;2024-02-14T01:09:34;2.80;97.40
20706;DHT22;10514;49.468;11.044;2024-02-14T01:12:02;2.70;97.30
20706;DHT22;10514;49.468;11.044;2024-02-14T01:14:27;2.70;97.30
20706;DHT22;10514;49.468;11.044;2024-02-14T01:16:53;2.80;97.40
20706;DHT22;10514;49.468;11.044;2024-02-14T01:19:19;2.70;97.30
20706;DHT22;10514;49.468;11.044;2024-02-14T01:21:45;2.80;97.30
20706;DHT22;10514;49.468;11.044;2024-02-14T01:24:14;2.80;97.20
20706;DHT22;10514;49.468;11.044;2024-02-14T01:26:39;2.80;97.40
20706;DHT22;10514;49.468;11.044;2024-02-14T01:29:06;2.90;97.80
20706;DHT22;10514;49.468;11.044;2024-02-14T01:31:32;2.80;97.70
20706;DHT22;10514;49.468;11.044;2024-02-14T01:33:59;2.90;97.40
20706;DHT22;10514;49.468;11.044;2024-02-14T01:36:28;2.90;97.30
20706;DHT22;10514;49.468;11.044;2024-02-14T01:38:53;2.80;97.20
20706;DHT22;10514;49.468;11.044;2024-02-14T01:41:19;2.80;97.20
20706;DHT22;10514;49.468;11.044;2024-02-14T01:43:49;2.80;97.20
20706;DHT22;10514;49.468;11.044;2024-02-14T01:46:15;2.90;97.20
20706;DHT22;10514;49.468;11.044;2024-02-14T01:48:41;2.90;96.80
20706;DHT22;10514;49.468;11.044;2024-02-14T01:51:08;2.90;96.70
20706;DHT22;10514;49.468;11.044;2024-02-14T01:53:37;2.90;96.70
20706;DHT22;10514;49.468;11.044;2024-02-14T01:56:04;2.90;96.60
20706;DHT22;10514;49.468;11.044;2024-02-14T01:58:31;2.90;96.80
20706;DHT22;10514;49.468;11.044;2024-02-14T02:00:57;2.80;96.70
20706;DHT22;10514;49.468;11.044;2024-02-14T02:03:24;2.80;96.70
20706;DHT22;10514;49.468;11.044;2024-02-14T02:05:50;2.90;96.50
20706;DHT22;10514;49.468;11.044;2024-02-14T02:08:16;2.80;96.60
20706;DHT22;10514;49.468;11.044;2024-02-14T02:10:42;2.80;96.80
20706;DHT22;10514;49.468;11.044;2024-02-14T02:13:08;2.80;96.70
20706;DHT22;10514;49.468;11.044;2024-02-14T02:15:34;2.80;96.70
20706;DHT22;10514;49.468;11.044;2024-02-14T02:18:01;2.80;96.80
20706;DHT22;10514;49.468;11.044;2024-02-14T02:20:27;2.80;96.80
20706;DHT22;10514;49.468;11.044;2024-02-14T02:22:53;2.80;96.80
20706;DHT22;10514;49.468;11.044;2024-02-14T02:25:19;2.80;96.90
20706;DHT22;10514;49.468;11.044;2024-02-14T02:27:52;2.70;96.90
20706;DHT22;10514;49.468;11.044;2024-02-14T02:30:22;2.80;96.90
20706;DHT22;10514;49.468;11.044;2024-02-14T02:32:47;2.80;96.90
20706;DHT22;10514;49.468;11.044;2024-02-14T02:35:13;2.80;97.00
20706;DHT22;10514;49.468;11.044;2024-02-14T02:37:39;2.80;96.90
20706;DHT22;10514;49.468;11.044;2024-02-14T02:40:05;2.80;97.00
20706;DHT22;10514;49.468;11.044;2024-02-14T02:42:30;2.80;96.80
20706;DHT22;10514;49.468;11.044;2024-02-14T02:44:56;2.90;97.10
20706;DHT22;10514;49.468;11.044;2024-02-14T02:47:21;2.80;96.90
20706;DHT22;10514;49.468;11.044;2024-02-14T02:49:47;2.80;96.90
20706;DHT22;10514;49.468;11.044;2024-02-14T02:52:13;2.80;96.90
20706;DHT22;10514;49.468;11.044;2024-02-14T02:54:38;2.90;96.80
20706;DHT22;10514;49.468;11.044;2024-02-14T02:57:12;2.90;97.00
20706;DHT22;10514;49.468;11.044;2024-02-14T02:59:37;2.90;96.80
20706;DHT22;10514;49.468;11.044;2024-02-14T03:02:04;2.80;96.70
20706;DHT22;10514;49.468;11.044;2024-02-14T03:04:33;2.80;96.60
20706;DHT22;10514;49.468;11.044;2024-02-14T03:06:59;2.80;96.40
20706;DHT22;10514;49.468;11.044;2024-02-14T03:09:24;2.80;96.50
20706;DHT22;10514;49.468;11.044;2024-02-14T03:11:51;2.80;96.50
20706;DHT22;10514;49.468;11.044;2024-02-14T03:14:17;2.80;96.60
20706;DHT22;10514;49.468;11.044;2024-02-14T03:16:42;2.80;96.60
20706;DHT22;10514;49.468;11.044;2024-02-14T03:19:08;2.80;96.70
20706;DHT22;10514;49.468;11.044;2024-02-14T03:21:33;2.80;96.50
20706;DHT22;10514;49.468;11.044;2024-02-14T03:24:01;2.80;96.40
20706;DHT22;10514;49.468;11.044;2024-02-14T03:26:27;2.80;96.20
20706;DHT22;10514;49.468;11.044;2024-02-14T03:28:52;2.80;96.10
20706;DHT22;10514;49.468;11.044;2024-02-14T03:31:20;2.70;96.30
20706;DHT22;10514;49.468;11.044;2024-02-14T03:33:45;2.80;96.50
20706;DHT22;10514;49.468;11.044;2024-02-14T03:36:11;2.80;96.40
20706;DHT22;10514;49.468;11.044;2024-02-14T03:38:36;2.80;96.50
20706;DHT22;10514;49.468;11.044;2024-02-14T03:41:05;2.70;96.50
20706;DHT22;10514;49.468;11.044;2024-02-14T03:43:30;2.70;96.70
20706;DHT22;10514;49.468;11.044;2024-02-14T03:45:57;2.80;96.70
20706;DHT22;10514;49.468;11.044;2024-02-14T03:48:23;2.80;96.80
20706;DHT22;10514;49.468;11.044;2024-02-14T03:50:48;2.70;96.40
20706;DHT22;10514;49.468;11.044;2024-02-14T03:53:14;2.70;96.40
20706;DHT22;10514;49.468;11.044;2024-02-14T03:55:40;2.70;96.40
20706;DHT22;10514;49.468;11.044;2024-02-14T03:58:06;2.60;96.40
20706;DHT22;10514;49.468;11.044;2024-02-14T04:00:34;2.60;96.40
20706;DHT22;10514;49.468;11.044;2024-02-14T04:03:01;2.60;96.40
20706;DHT22;10514;49.468;11.044;2024-02-14T04:05:28;2.60;96.50
20706;DHT22;10514;49.468;11.044;2024-02-14T04:07:54;2.60;96.60
20706;DHT22;10514;49.468;11.044;2024-02-14T04:10:20;2.60;96.60
20706;DHT22;10514;49.468;11.044;2024-02-14T04:12:46;2.60;96.60
20706;DHT22;10514;49.468;11.044;2024-02-14T04:15:12;2.60;96.50
20706;DHT22;10514;49.468;11.044;2024-02-14T04:17:37;2.70;96.40
20706;DHT22;10514;49.468;11.044;2024-02-14T04:20:03;2.60;96.40
20706;DHT22;10514;49.468;11.044;2024-02-14T04:22:30;2.60;96.40
20706;DHT22;10514;49.468;11.044;2024-02-14T04:24:56;2.60;96.40
20706;DHT22;10514;49.468;11.044;2024-02-14T04:27:21;2.60;96.70
20706;DHT22;10514;49.468;11.044;2024-02-14T04:29:47;2.60;96.70
20706;DHT22;10514;49.468;11.044;2024-02-14T04:32:13;2.60;96.90
20706;DHT22;10514;49.468;11.044;2024-02-14T04:34:39;2.70;97.00
20706;DHT22;10514;49.468;11.044;2024-02-14T04:37:05;2.70;97.00
20706;DHT22;10514;49.468;11.044;2024-02-14T04:39:37;2.70;97.20
20706;DHT22;10514;49.468;11.044;2024-02-14T04:42:03;2.80;97.30
20706;DHT22;10514;49.468;11.044;2024-02-14T04:44:30;2.80;97.20
20706;DHT22;10514;49.468;11.044;2024-02-14T04:46:59;2.90;97.20
20706;DHT22;10514;49.468;11.044;2024-02-14T04:49:25;2.90;97.00
20706;DHT22;10514;49.468;11.044;2024-02-14T04:51:51;2.90;97.00
20706;DHT22;10514;49.468;11.044;2024-02-14T04:54:17;3.00;97.00
20706;DHT22;10514;49.468;11.044;2024-02-14T04:56:43;3.00;96.80
20706;DHT22;10514;49.468;11.044;2024-02-14T04:59:10;3.10;96.20
20706;DHT22;10514;49.468;11.044;2024-02-14T05:01:36;3.10;96.10
20706;DHT22;10514;49.468;11.044;2024-02-14T05:04:02;3.10;96.10
20706;DHT22;10514;49.468;11.044;2024-02-14T05:06:29;3.10;96.40
20706;DHT22;10514;49.468;11.044;2024-02-14T05:08:55;3.10;96.30
20706;DHT22;10514;49.468;11.044;2024-02-14T05:11:21;3.20;96.40
20706;DHT22;10514;49.468;11.044;2024-02-14T05:13:47;3.20;96.30
20706;DHT22;10514;49.468;11.044;2024-02-14T05:16:12;3.20;96.20
20706;DHT22;10514;49.468;11.044;2024-02-14T05:18:38;3.20;95.70
20706;DHT22;10514;49.468;11.044;2024-02-14T05:21:07;3.20;95.70
20706;DHT22;10514;49.468;11.044;2024-02-14T05:23:34;3.20;96.00
20706;DHT22;10514;49.468;11.044;2024-02-14T05:26:01;3.20;96.00
20706;DHT22;10514;49.468;11.044;2024-02-14T05:28:30;3.30;96.00
20706;DHT22;10514;49.468;11.044;2024-02-14T05:30:56;3.30;95.90
20706;DHT22;10514;49.468;11.044;2024-02-14T05:33:22;3.30;95.70
20706;DHT22;10514;49.468;11.044;2024-02-14T05:35:49;3.30;95.60
20706;DHT22;10514;49.468;11.044;2024-02-14T05:38:15;3.30;95.60
20706;DHT22;10514;49.468;11.044;2024-02-14T05:40:40;3.40;95.70
20706;DHT22;10514;49.468;11.044;2024-02-14T05:43:12;3.40;95.80
20706;DHT22;10514;49.468;11.044;2024-02-14T05:45:37;3.40;95.50
20706;DHT22;10514;49.468;11.044;2024-02-14T05:48:03;3.40;95.40
20706;DHT22;10514;49.468;11.044;2024-02-14T05:50:29;3.50;95.50
20706;DHT22;10514;49.468;11.044;2024-02-14T05:52:54;3.40;95.50
20706;DHT22;10514;49.468;11.044;2024-02-14T05:55:22;3.50;95.60
20706;DHT22;10514;49.468;11.044;2024-02-14T05:57:48;3.50;95.70
20706;DHT22;10514;49.468;11.044;2024-02-14T06:00:14;3.60;95.20
20706;DHT22;10514;49.468;11.044;2024-02-14T06:02:39;3.60;94.80
20706;DHT22;10514;49.468;11.044;2024-02-14T06:05:06;3.70;94.70
20706;DHT22;10514;49.468;11.044;2024-02-14T06:07:37;3.70;94.70
20706;DHT22;10514;49.468;11.044;2024-02-14T06:10:03;3.60;94.90
20706;DHT22;10514;49.468;11.044;2024-02-14T06:12:29;3.70;94.90
20706;DHT22;10514;49.468;11.044;2024-02-14T06:14:55;3.70;94.90
20706;DHT22;10514;49.468;11.044;2024-02-14T06:17:20;3.70;94.80
20706;DHT22;10514;49.468;11.044;2024-02-14T06:19:46;3.80;94.70
20706;DHT22;10514;49.468;11.044;2024-02-14T06:22:12;3.80;94.60
20706;DHT22;10514;49.468;11.044;2024-02-14T06:24:37;3.80;94.50
20706;DHT22;10514;49.468;11.044;2024-02-14T06:27:03;3.90;94.00
20706;DHT22;10514;49.468;11.044;2024-02-14T06:29:28;3.90;94.10
20706;DHT22;10514;49.468;11.044;2024-02-14T06:31:54;3.90;94.30
20706;DHT22;10514;49.468;11.044;2024-02-14T06:34:19;3.90;94.00
20706;DHT22;10514;49.468;11.044;2024-02-14T06:36:46;3.90;94.00
20706;DHT22;10514;49.468;11.044;2024-02-14T06:39:12;3.90;94.00
20706;DHT22;10514;49.468;11.044;2024-02-14T06:41:38;3.90;94.00
20706;DHT22;10514;49.468;11.044;2024-02-14T06:44:04;4.00;93.80
20706;DHT22;10514;49.468;11.044;2024-02-14T06:46:30;4.00;93.70
20706;DHT22;10514;49.468;11.044;2024-02-14T06:48:56;4.00;93.70
20706;DHT22;10514;49.468;11.044;2024-02-14T06:51:22;4.00;93.70
20706;DHT22;10514;49.468;11.044;2024-02-14T06:53:49;4.10;93.70
20706;DHT22;10514;49.468;11.044;2024-02-14T06:56:15;4.10;93.60
20706;DHT22;10514;49.468;11.044;2024-02-14T06:58:41;4.10;93.70
20706;DHT22;10514;49.468;11.044;2024-02-14T07:01:06;4.10;93.50
20706;DHT22;10514;49.468;11.044;2024-02-14T07:03:32;4.20;93.30
20706;DHT22;10514;49.468;11.044;2024-02-14T07:05:58;4.20;93.40
20706;DHT22;10514;49.468;11.044;2024-02-14T07:08:23;4.20;93.30
20706;DHT22;10514;49.468;11.044;2024-02-14T07:10:51;4.30;93.00
20706;DHT22;10514;49.468;11.044;2024-02-14T07:13:17;4.30;92.90
20706;DHT22;10514;49.468;11.044;2024-02-14T07:15:42;4.30;92.90
20706;DHT22;10514;49.468;11.044;2024-02-14T07:18:09;4.40;92.90
20706;DHT22;10514;49.468;11.044;2024-02-14T07:20:35;4.50;92.30
20706;DHT22;10514;49.468;11.044;2024-02-14T07:23:01;4.60;92.30
20706;DHT22;10514;49.468;11.044;2024-02-14T07:25:27;4.70;92.40
20706;DHT22;10514;49.468;11.044;2024-02-14T07:27:52;4.70;92.70
20706;DHT22;10514;49.468;11.044;2024-02-14T07:30:18;4.70;92.80
20706;DHT22;10514;49.468;11.044;2024-02-14T07:32:44;4.70;92.80
20706;DHT22;10514;49.468;11.044;2024-02-14T07:35:10;4.70;93.20
20706;DHT22;10514;49.468;11.044;2024-02-14T07:37:36;4.70;93.40
20706;DHT22;10514;49.468;11.044;2024-02-14T07:40:03;4.90;93.60
20706;DHT22;10514;49.468;11.044;2024-02-14T07:42:28;4.90;93.80
20706;DHT22;10514;49.468;11.044;2024-02-14T07:44:54;5.00;93.40
20706;DHT22;10514;49.468;11.044;2024-02-14T07:47:21;5.10;93.60
20706;DHT22;10514;49.468;11.044;2024-02-14T07:49:47;5.30;92.70
20706;DHT22;10514;49.468;11.044;2024-02-14T07:52:12;5.40;92.90
20706;DHT22;10514;49.468;11.044;2024-02-14T07:54:38;5.50;92.30
20706;DHT22;10514;49.468;11.044;2024-02-14T07:57:03;5.50;91.90
20706;DHT22;10514;49.468;11.044;2024-02-14T07:59:29;5.50;92.20
20706;DHT22;10514;49.468;11.044;2024-02-14T08:01:54;5.50;92.50
20706;DHT22;10514;49.468;11.044;2024-02-14T08:04:20;5.60;92.50
20706;DHT22;10514;49.468;11.044;2024-02-14T08:06:46;5.60;92.60
20706;DHT22;10514;49.468;11.044;2024-02-14T08:09:12;5.70;92.70
20706;DHT22;10514;49.468;11.044;2024-02-14T08:11:37;5.70;92.00
20706;DHT22;10514;49.468;11.044;2024-02-14T08:14:03;5.90;92.20
20706;DHT22;10514;49.468;11.044;2024-02-14T08:16:36;6.00;91.20
20706;DHT22;10514;49.468;11.044;2024-02-14T08:19:32;6.00;90.40
20706;DHT22;10514;49.468;11.044;2024-02-14T08:21:59;6.00;90.50
20706;DHT22;10514;49.468;11.044;2024-02-14T08:24:28;6.10;90.30
20706;DHT22;10514;49.468;11.044;2024-02-14T08:26:54;6.10;90.10
20706;DHT22;10514;49.468;11.044;2024-02-14T08:29:20;6.10;90.10
20706;DHT22;10514;49.468;11.044;2024-02-14T08:31:46;6.10;90.30
20706;DHT22;10514;49.468;11.044;2024-02-14T08:34:12;6.10;90.60
20706;DHT22;10514;49.468;11.044;2024-02-14T08:36:37;6.10;90.30
20706;DHT22;10514;49.468;11.044;2024-02-14T08:39:07;6.10;90.60
20706;DHT22;10514;49.468;11.044;2024-02-14T08:41:33;5.70;91.30
20706;DHT22;10514;49.468;11.044;2024-02-14T08:43:58;6.10;91.40
20706;DHT22;10514;49.468;11.044;2024-02-14T08:46:24;6.10;91.50
20706;DHT22;10514;49.468;11.044;2024-02-14T08:48:51;6.10;91.60
20706;DHT22;10514;49.468;11.044;2024-02-14T08:51:17;6.10;92.10
20706;DHT22;10514;49.468;11.044;2024-02-14T08:53:45;6.10;91.90
20706;DHT22;10514;49.468;11.044;2024-02-14T08:56:11;6.20;92.30
20706;DHT22;10514;49.468;11.044;2024-02-14T08:58:37;6.20;92.10
20706;DHT22;10514;49.468;11.044;2024-02-14T09:01:03;6.40;92.00
20706;DHT22;10514;49.468;11.044;2024-02-14T09:03:28;6.50;91.40
20706;DHT22;10514;49.468;11.044;2024-02-14T09:05:56;6.50;91.20
20706;DHT22;10514;49.468;11.044;2024-02-14T09:08:22;6.60;91.10
20706;DHT22;10514;49.468;11.044;2024-02-14T09:10:52;6.60;91.50
20706;DHT22;10514;49.468;11.044;2024-02-14T09:13:17;6.60;90.90
20706;DHT22;10514;49.468;11.044;2024-02-14T09:15:43;6.70;90.80
20706;DHT22;10514;49.468;11.044;2024-02-14T09:18:09;6.70;90.70
20706;DHT22;10514;49.468;11.044;2024-02-14T09:20:35;6.80;90.50
20706;DHT22;10514;49.468;11.044;2024-02-14T09:23:00;6.90;90.10
20706;DHT22;10514;49.468;11.044;2024-02-14T09:25:26;7.10;90.00
20706;DHT22;10514;49.468;11.044;2024-02-14T09:27:51;7.30;87.60
20706;DHT22;10514;49.468;11.044;2024-02-14T09:30:18;7.60;86.60
20706;DHT22;10514;49.468;11.044;2024-02-14T09:32:45;7.80;85.40
20706;DHT22;10514;49.468;11.044;2024-02-14T09:35:11;8.00;82.90
20706;DHT22;10514;49.468;11.044;2024-02-14T09:37:36;8.30;82.10
20706;DHT22;10514;49.468;11.044;2024-02-14T09:40:08;8.20;82.00
20706;DHT22;10514;49.468;11.044;2024-02-14T09:42:40;8.30;80.60
20706;DHT22;10514;49.468;11.044;2024-02-14T09:45:07;8.20;81.40
20706;DHT22;10514;49.468;11.044;2024-02-14T09:47:33;8.30;81.70
20706;DHT22;10514;49.468;11.044;2024-02-14T09:50:02;8.30;81.20
20706;DHT22;10514;49.468;11.044;2024-02-14T09:52:32;8.40;81.30
20706;DHT22;10514;49.468;11.044;2024-02-14T09:54:58;8.30;81.10
20706;DHT22;10514;49.468;11.044;2024-02-14T09:57:24;8.40;80.10
20706;DHT22;10514;49.468;11.044;2024-02-14T09:59:52;8.40;81.10
20706;DHT22;10514;49.468;11.044;2024-02-14T10:02:19;8.40;80.70
20706;DHT22;10514;49.468;11.044;2024-02-14T10:04:45;8.50;79.70
20706;DHT22;10514;49.468;11.044;2024-02-14T10:07:10;8.60;79.30
20706;DHT22;10514;49.468;11.044;2024-02-14T10:09:42;8.60;79.80
20706;DHT22;10514;49.468;11.044;2024-02-14T10:12:09;8.60;79.80
20706;DHT22;10514;49.468;11.044;2024-02-14T10:14:36;8.60;80.00
20706;DHT22;10514;49.468;11.044;2024-02-14T10:17:03;8.60;79.90
20706;DHT22;10514;49.468;11.044;2024-02-14T10:19:29;8.70;79.30
20706;DHT22;10514;49.468;11.044;2024-02-14T10:21:59;8.70;78.30
20706;DHT22;10514;49.468;11.044;2024-02-14T10:24:26;8.60;79.30
20706;DHT22;10514;49.468;11.044;2024-02-14T10:26:52;8.70;80.30
20706;DHT22;10514;49.468;11.044;2024-02-14T10:29:22;8.80;79.50
20706;DHT22;10514;49.468;11.044;2024-02-14T10:31:48;8.90;80.40
20706;DHT22;10514;49.468;11.044;2024-02-14T10:34:14;9.10;80.70
20706;DHT22;10514;49.468;11.044;2024-02-14T10:36:42;9.20;78.80
20706;DHT22;10514;49.468;11.044;2024-02-14T10:39:11;9.40;82.00
20706;DHT22;10514;49.468;11.044;2024-02-14T10:41:36;9.70;79.80
20706;DHT22;10514;49.468;11.044;2024-02-14T10:44:05;9.90;80.60
20706;DHT22;10514;49.468;11.044;2024-02-14T10:46:32;10.30;78.90
20706;DHT22;10514;49.468;11.044;2024-02-14T10:49:03;10.50;75.70
20706;DHT22;10514;49.468;11.044;2024-02-14T10:51:31;10.70;76.50
20706;DHT22;10514;49.468;11.044;2024-02-14T10:53:58;10.90;76.90
20706;DHT22;10514;49.468;11.044;2024-02-14T10:56:27;11.00;75.60
20706;DHT22;10514;49.468;11.044;2024-02-14T10:58:56;10.90;72.50
20706;DHT22;10514;49.468;11.044;2024-02-14T11:01:26;10.80;72.10
20706;DHT22;10514;49.468;11.044;2024-02-14T11:03:56;10.60;72.20
20706;DHT22;10514;49.468;11.044;2024-02-14T11:06:23;10.40;73.70
20706;DHT22;10514;49.468;11.044;2024-02-14T11:09:03;10.30;73.80
20706;DHT22;10514;49.468;11.044;2024-02-14T11:11:33;10.30;74.90
20706;DHT22;10514;49.468;11.044;2024-02-14T11:13:59;10.20;75.60
20706;DHT22;10514;49.468;11.044;2024-02-14T11:16:28;10.20;75.90
20706;DHT22;10514;49.468;11.044;2024-02-14T11:19:11;10.20;76.40
20706;DHT22;10514;49.468;11.044;2024-02-14T11:21:40;10.20;76.20
20706;DHT22;10514;49.468;11.044;2024-02-14T11:24:08;10.20;76.80
20706;DHT22;10514;49.468;11.044;2024-02-14T11:26:48;10.20;77.20
20706;DHT22;10514;49.468;11.044;2024-02-14T11:29:18;10.20;78.60
20706;DHT22;10514;49.468;11.044;2024-02-14T11:31:47;10.30;80.10
20706;DHT22;10514;49.468;11.044;2024-02-14T11:34:16;10.30;80.30
20706;DHT22;10514;49.468;11.044;2024-02-14T11:36:44;10.30;79.40
20706;DHT22;10514;49.468;11.044;2024-02-14T11:39:10;10.40;79.40
20706;DHT22;10514;49.468;11.044;2024-02-14T11:41:37;10.50;79.50
20706;DHT22;10514;49.468;11.044;2024-02-14T11:44:04;10.60;79.80
20706;DHT22;10514;49.468;11.044;2024-02-14T11:46:34;10.90;81.80
20706;DHT22;10514;49.468;11.044;2024-02-14T11:49:04;11.10;82.70
20706;DHT22;10514;49.468;11.044;2024-02-14T11:51:30;11.30;79.20
20706;DHT22;10514;49.468;11.044;2024-02-14T11:53:58;11.50;78.10
20706;DHT22;10514;49.468;11.044;2024-02-14T11:56:33;11.50;76.60
20706;DHT22;10514;49.468;11.044;2024-02-14T11:59:00;11.50;75.80
20706;DHT22;10514;49.468;11.044;2024-02-14T12:01:29;11.70;78.20
20706;DHT22;10514;49.468;11.044;2024-02-14T12:03:56;11.90;76.60
20706;DHT22;10514;49.468;11.044;2024-02-14T12:06:22;12.10;75.60
20706;DHT22;10514;49.468;11.044;2024-02-14T12:08:48;12.10;74.00
20706;DHT22;10514;49.468;11.044;2024-02-14T12:11:13;12.20;74.30
20706;DHT22;10514;49.468;11.044;2024-02-14T12:13:39;12.20;74.40
20706;DHT22;10514;49.468;11.044;2024-02-14T12:16:08;12.20;74.70
20706;DHT22;10514;49.468;11.044;2024-02-14T12:18:35;12.10;74.60
20706;DHT22;10514;49.468;11.044;2024-02-14T12:21:07;12.00;75.10
20706;DHT22;10514;49.468;11.044;2024-02-14T12:23:33;11.90;75.60
20706;DHT22;10514;49.468;11.044;2024-02-14T12:26:03;11.80;76.30
20706;DHT22;10514;49.468;11.044;2024-02-14T12:28:29;11.60;76.70
20706;DHT22;10514;49.468;11.044;2024-02-14T12:30:58;11.60;77.00
20706;DHT22;10514;49.468;11.044;2024-02-14T12:33:25;11.40;77.10
20706;DHT22;10514;49.468;11.044;2024-02-14T12:35:52;11.30;77.80
20706;DHT22;10514;49.468;11.044;2024-02-14T12:38:19;11.40;78.40
20706;DHT22;10514;49.468;11.044;2024-02-14T12:40:45;11.40;78.40
20706;DHT22;10514;49.468;11.044;2024-02-14T12:43:15;11.40;78.90
20706;DHT22;10514;49.468;11.044;2024-02-14T12:45:44;11.40;78.80
20706;DHT22;10514;49.468;11.044;2024-02-14T12:48:11;11.40;78.70
20706;DHT22;10514;49.468;11.044;2024-02-14T12:50:40;11.40;78.60
20706;DHT22;10514;49.468;11.044;2024-02-14T12:53:13;11.40;78.10
20706;DHT22;10514;49.468;11.044;2024-02-14T12:55:38;11.40;78.40
20706;DHT22;10514;49.468;11.044;2024-02-14T12:58:04;11.50;79.00
20706;DHT22;10514;49.468;11.044;2024-02-14T13:00:29;11.40;80.40
20706;DHT22;10514;49.468;11.044;2024-02-14T13:02:56;11.30;81.30
20706;DHT22;10514;49.468;11.044;2024-02-14T13:05:22;11.30;81.70
20706;DHT22;10514;49.468;11.044;2024-02-14T13:07:47;11.30;82.10
20706;DHT22;10514;49.468;11.044;2024-02-14T13:10:13;11.20;82.60
20706;DHT22;10514;49.468;11.044;2024-02-14T13:12:38;11.20;83.00
20706;DHT22;10514;49.468;11.044;2024-02-14T13:15:05;11.20;83.80
20706;DHT22;10514;49.468;11.044;2024-02-14T13:17:31;11.20;83.70
20706;DHT22;10514;49.468;11.044;2024-02-14T13:19:56;11.10;83.60
20706;DHT22;10514;49.468;11.044;2024-02-14T13:22:22;11.20;83.60
20706;DHT22;10514;49.468;11.044;2024-02-14T13:24:48;11.20;83.50
20706;DHT22;10514;49.468;11.044;2024-02-14T13:27:14;11.20;83.40
20706;DHT22;10514;49.468;11.044;2024-02-14T13:29:39;11.30;82.70
20706;DHT22;10514;49.468;11.044;2024-02-14T13:32:05;11.30;82.50
20706;DHT22;10514;49.468;11.044;2024-02-14T13:34:36;11.20;81.80
20706;DHT22;10514;49.468;11.044;2024-02-14T13:37:01;11.20;81.60
20706;DHT22;10514;49.468;11.044;2024-02-14T13:39:28;11.20;81.80
20706;DHT22;10514;49.468;11.044;2024-02-14T13:41:53;11.20;81.70
20706;DHT22;10514;49.468;11.044;2024-02-14T13:44:20;11.20;81.80
20706;DHT22;10514;49.468;11.044;2024-02-14T13:46:45;11.30;81.70
20706;DHT22;10514;49.468;11.044;2024-02-14T13:49:11;11.30;82.10
20706;DHT22;10514;49.468;11.044;2024-02-14T13:51:41;11.30;82.60
20706;DHT22;10514;49.468;11.044;2024-02-14T13:54:06;11.20;82.80
20706;DHT22;10514;49.468;11.044;2024-02-14T13:56:34;11.20;83.20
20706;DHT22;10514;49.468;11.044;2024-02-14T13:58:59;11.20;83.80
20706;DHT22;10514;49.468;11.044;2024-02-14T14:01:25;11.20;84.20
20706;DHT22;10514;49.468;11.044;2024-02-14T14:03:52;11.20;84.10
20706;DHT22;10514;49.468;11.044;2024-02-14T14:06:20;11.30;83.60
20706;DHT22;10514;49.468;11.044;2024-02-14T14:08:45;11.30;83.20
20706;DHT22;10514;49.468;11.044;2024-02-14T14:11:11;11.30;83.40
20706;DHT22;10514;49.468;11.044;2024-02-14T14:13:37;11.20;83.40
20706;DHT22;10514;49.468;11.044;2024-02-14T14:16:03;11.10;83.80
20706;DHT22;10514;49.468;11.044;2024-02-14T14:18:30;11.10;84.50
20706;DHT22;10514;49.468;11.044;2024-02-14T14:20:56;11.10;84.50
20706;DHT22;10514;49.468;11.044;2024-02-14T14:23:21;11.10;84.70
20706;DHT22;10514;49.468;11.044;2024-02-14T14:25:47;11.20;84.90
20706;DHT22;10514;49.468;11.044;2024-02-14T14:28:12;11.20;85.30
20706;DHT22;10514;49.468;11.044;2024-02-14T14:30:40;11.20;84.50
20706;DHT22;10514;49.468;11.044;2024-02-14T14:33:05;11.20;84.10
20706;DHT22;10514;49.468;11.044;2024-02-14T14:35:33;11.00;83.70
20706;DHT22;10514;49.468;11.044;2024-02-14T14:38:02;11.30;83.30
20706;DHT22;10514;49.468;11.044;2024-02-14T14:40:28;11.20;82.30
20706;DHT22;10514;49.468;11.044;2024-02-14T14:42:54;11.20;82.70
20706;DHT22;10514;49.468;11.044;2024-02-14T14:45:19;11.20;82.90
20706;DHT22;10514;49.468;11.044;2024-02-14T14:47:45;11.10;83.20
20706;DHT22;10514;49.468;11.044;2024-02-14T14:50:11;11.10;83.40
20706;DHT22;10514;49.468;11.044;2024-02-14T14:52:43;11.10;83.50
20706;DHT22;10514;49.468;11.044;2024-02-14T14:55:09;11.00;83.50
20706;DHT22;10514;49.468;11.044;2024-02-14T14:57:35;10.90;83.50
20706;DHT22;10514;49.468;11.044;2024-02-14T15:00:07;10.90;83.60
20706;DHT22;10514;49.468;11.044;2024-02-14T15:02:35;10.90;84.10
20706;DHT22;10514;49.468;11.044;2024-02-14T15:05:01;10.80;84.40
20706;DHT22;10514;49.468;11.044;2024-02-14T15:07:26;10.80;84.70
20706;DHT22;10514;49.468;11.044;2024-02-14T15:09:53;10.80;85.00
20706;DHT22;10514;49.468;11.044;2024-02-14T15:12:23;10.80;85.10
20706;DHT22;10514;49.468;11.044;2024-02-14T15:14:52;10.70;85.00
20706;DHT22;10514;49.468;11.044;2024-02-14T15:17:18;10.70;85.30
20706;DHT22;10514;49.468;11.044;2024-02-14T15:19:43;10.70;85.60
20706;DHT22;10514;49.468;11.044;2024-02-14T15:22:09;10.70;86.20
20706;DHT22;10514;49.468;11.044;2024-02-14T15:24:34;10.70;85.60